Time;durP1;ratioP1;P1;durP2;ratioP2;P2;SDS_P1;SDS_P2;PMS_P1;PMS_P2;Temp;Humidity;BMP_temperature;BMP_pressure;BME280_temperature;BME280_humidity;BME280_pressure;Samples;Min_cycle;Max_cycle;Signal;HPM_P1;HPM_P2
2023/04/17 00:01:14;;;;;;;20.55;9.00;;;;;;;11.07;85.10;101691.28;4999749;28;20057;-47
2023/04/17 00:03:41;;;;;;;13.38;5.68;;;;;;;11.04;85.13;101692.72;5031175;28;20049;-47
2023/04/17 00:06:08;;;;;;;7.45;5.13;;;;;;;11.00;85.28;101689.81;5030060;28;20141;-45
2023/04/17 00:08:35;;;;;;;6.22;4.38;;;;;;;11.00;85.32;101691.75;5031060;28;20444;-46
2023/04/17 00:11:02;;;;;;;8.63;4.25;;;;;;;10.98;85.24;101694.84;5030609;28;20060;-49
2023/04/17 00:13:35;;;;;;;8.48;4.43;;;;;;;10.97;85.01;101697.94;5037928;28;20077;-45
2023/04/17 00:16:01;;;;;;;10.05;6.03;;;;;;;10.91;85.12;101688.16;5032884;28;20054;-52
2023/04/17 00:18:28;;;;;;;9.25;4.38;;;;;;;10.92;85.61;101700.88;5040676;28;20052;-46
2023/04/17 00:20:55;;;;;;;7.47;4.65;;;;;;;10.94;85.47;101698.59;5026430;28;20084;-46
2023/04/17 00:23:24;;;;;;;8.65;4.35;;;;;;;10.92;85.34;101703.63;5028145;28;20063;-47
2023/04/17 00:25:51;;;;;;;7.38;4.07;;;;;;;10.95;85.35;101700.22;5025080;28;20045;-47
2023/04/17 00:28:18;;;;;;;9.45;4.38;;;;;;;10.94;85.42;101701.34;5027889;28;20388;-47
2023/04/17 00:30:45;;;;;;;13.20;5.88;;;;;;;10.95;85.44;101705.75;5037923;28;20111;-46
2023/04/17 00:33:12;;;;;;;10.45;5.47;;;;;;;10.95;85.68;101705.75;5029920;28;20060;-51
2023/04/17 00:35:39;;;;;;;11.90;5.70;;;;;;;10.96;85.65;101699.09;5030410;28;20049;-46
2023/04/17 00:38:07;;;;;;;9.07;4.60;;;;;;;10.99;85.51;101706.72;5030178;28;20045;-45
2023/04/17 00:40:35;;;;;;;8.68;5.22;;;;;;;10.98;85.62;101703.16;5028476;28;20049;-46
2023/04/17 00:43:03;;;;;;;6.80;4.30;;;;;;;10.99;85.79;101706.72;5030030;28;20052;-46
2023/04/17 00:45:30;;;;;;;10.73;5.00;;;;;;;11.02;86.04;101709.69;5030196;28;20041;-46
2023/04/17 00:47:59;;;;;;;12.65;5.55;;;;;;;11.11;85.95;101709.69;5028636;28;20395;-47
2023/04/17 00:50:30;;;;;;;6.60;4.68;;;;;;;11.13;85.77;101718.50;5029822;28;20053;-46
2023/04/17 00:52:58;;;;;;;9.40;5.30;;;;;;;11.17;85.91;101710.34;5033103;28;20052;-46
2023/04/17 00:55:26;;;;;;;12.93;5.43;;;;;;;11.21;85.67;101709.38;5030124;28;20144;-47
2023/04/17 00:57:54;;;;;;;9.32;5.25;;;;;;;11.22;85.86;101724.03;5029150;28;20410;-46
2023/04/17 01:00:21;;;;;;;10.13;5.00;;;;;;;11.25;86.00;101718.66;5029733;28;20471;-46
2023/04/17 01:02:48;;;;;;;12.50;5.63;;;;;;;11.29;86.19;101714.09;5029789;28;20361;-47
2023/04/17 01:05:15;;;;;;;14.85;5.35;;;;;;;11.33;86.20;101717.81;5029851;28;20083;-46
2023/04/17 01:07:41;;;;;;;7.88;4.25;;;;;;;11.37;86.24;101720.78;5029071;28;20068;-47
2023/04/17 01:10:09;;;;;;;11.73;5.25;;;;;;;11.42;86.17;101713.09;5029709;28;20041;-46
2023/04/17 01:12:36;;;;;;;12.40;5.13;;;;;;;11.44;86.19;101726.63;5029545;28;20049;-47
2023/04/17 01:15:03;;;;;;;13.45;6.05;;;;;;;11.41;86.59;101714.25;5029850;28;20598;-46
2023/04/17 01:17:30;;;;;;;9.48;5.20;;;;;;;11.43;86.29;101725.03;5027865;28;20049;-46
2023/04/17 01:19:57;;;;;;;8.98;4.70;;;;;;;11.47;86.49;101729.56;5029576;28;20373;-45
2023/04/17 01:22:24;;;;;;;8.68;4.68;;;;;;;11.48;86.82;101730.41;5029461;28;20132;-46
2023/04/17 01:24:50;;;;;;;9.38;4.70;;;;;;;11.49;86.78;101729.25;5029509;28;20561;-49
2023/04/17 01:27:17;;;;;;;12.57;5.90;;;;;;;11.54;86.86;101723.56;5028394;28;20128;-50
2023/04/17 01:29:44;;;;;;;6.57;4.55;;;;;;;11.55;86.97;101720.44;5027353;28;20048;-47
2023/04/17 01:32:11;;;;;;;11.95;5.70;;;;;;;11.58;86.87;101724.50;5026624;28;20127;-52
2023/04/17 01:34:37;;;;;;;9.05;4.90;;;;;;;11.60;86.98;101728.59;5026685;28;20041;-48
2023/04/17 01:37:04;;;;;;;8.63;4.63;;;;;;;11.61;86.96;101730.22;5028546;28;20526;-46
2023/04/17 01:39:31;;;;;;;8.60;4.50;;;;;;;11.63;87.15;101724.34;5029288;28;20048;-45
2023/04/17 01:41:58;;;;;;;7.88;4.68;;;;;;;11.66;87.12;101732.00;5028743;28;20502;-46
2023/04/17 01:44:24;;;;;;;10.70;4.75;;;;;;;11.70;87.08;101726.66;5029527;28;20542;-50
2023/04/17 01:46:55;;;;;;;6.25;4.18;;;;;;;11.73;87.07;101728.78;5031655;28;20159;-52
2023/04/17 01:49:22;;;;;;;7.07;4.57;;;;;;;11.77;87.06;101732.50;5037277;28;20064;-46
2023/04/17 01:51:48;;;;;;;6.85;3.95;;;;;;;11.78;87.20;101736.94;5025921;28;20064;-45
2023/04/17 01:54:15;;;;;;;9.40;4.82;;;;;;;11.80;87.26;101731.84;5028294;28;20046;-47
2023/04/17 01:56:42;;;;;;;5.82;3.63;;;;;;;11.81;87.32;101727.94;5023303;28;20041;-49
2023/04/17 01:59:09;;;;;;;7.13;4.00;;;;;;;11.82;87.40;101732.34;5024999;28;20046;-53
2023/04/17 02:01:36;;;;;;;6.07;4.07;;;;;;;11.83;87.33;101733.97;5024502;28;20051;-46
2023/04/17 02:04:03;;;;;;;6.43;3.53;;;;;;;11.84;87.60;101732.81;5027611;28;20056;-52
2023/04/17 02:06:34;;;;;;;4.72;3.55;;;;;;;11.84;87.56;101732.81;5025768;28;20044;-48
2023/04/17 02:09:01;;;;;;;9.40;5.47;;;;;;;11.82;87.47;101732.34;5020103;28;20141;-49
2023/04/17 02:11:28;;;;;;;12.60;5.15;;;;;;;11.76;87.34;101747.50;5022886;28;20431;-48
2023/04/17 02:13:55;;;;;;;13.07;5.95;;;;;;;11.74;87.42;101749.81;5027156;28;20061;-51
2023/04/17 02:16:21;;;;;;;10.00;5.43;;;;;;;11.71;87.49;101736.59;5020249;28;20263;-46
2023/04/17 02:18:50;;;;;;;10.15;4.82;;;;;;;11.71;87.37;101744.91;5024325;28;20048;-45
2023/04/17 02:21:17;;;;;;;9.93;4.75;;;;;;;11.72;87.48;101741.00;5026373;28;20053;-47
2023/04/17 02:23:45;;;;;;;9.65;4.85;;;;;;;11.73;87.48;101748.19;5033186;28;20053;-45
2023/04/17 02:26:12;;;;;;;9.32;4.70;;;;;;;11.71;87.56;101750.47;5027518;28;20080;-46
2023/04/17 02:28:43;;;;;;;11.75;4.40;;;;;;;11.68;87.44;101751.09;5023044;28;20513;-47
2023/04/17 02:31:10;;;;;;;9.55;4.82;;;;;;;11.62;87.32;101748.47;5030470;28;20100;-46
2023/04/17 02:33:37;;;;;;;11.07;3.90;;;;;;;11.56;87.28;101757.31;5026468;28;20488;-45
2023/04/17 02:36:05;;;;;;;10.45;4.60;;;;;;;11.51;87.62;101755.53;5027031;28;20041;-46
2023/04/17 02:38:31;;;;;;;11.75;6.15;;;;;;;11.51;87.62;101746.38;5026446;28;20057;-45
2023/04/17 02:40:58;;;;;;;11.88;5.22;;;;;;;11.47;87.64;101751.75;5025935;28;20119;-46
2023/04/17 02:43:25;;;;;;;8.98;4.90;;;;;;;11.44;87.96;101752.41;5031160;28;20054;-45
2023/04/17 02:45:52;;;;;;;8.75;5.03;;;;;;;11.43;88.16;101755.53;5024879;28;20054;-45
2023/04/17 02:48:19;;;;;;;7.70;5.35;;;;;;;11.44;88.35;101746.88;5026377;28;20041;-45
2023/04/17 02:50:45;;;;;;;9.15;5.50;;;;;;;11.43;88.36;101750.78;5021919;28;20034;-45
2023/04/17 02:53:13;;;;;;;10.98;5.60;;;;;;;11.42;88.58;101760.25;5026916;28;20557;-46
2023/04/17 02:55:40;;;;;;;10.45;5.13;;;;;;;11.42;88.66;101754.69;5027184;28;20049;-51
2023/04/17 02:58:07;;;;;;;7.57;5.07;;;;;;;11.37;88.77;101749.31;5027282;28;20063;-46
2023/04/17 03:00:38;;;;;;;10.93;5.95;;;;;;;11.32;88.79;101755.03;5110720;23;20594;31
2023/04/17 03:03:05;;;;;;;15.43;6.40;;;;;;;11.29;88.92;101752.09;5002388;28;20384;-46
2023/04/17 03:05:32;;;;;;;13.10;6.97;;;;;;;11.26;89.28;101753.56;5005795;28;20100;-45
2023/04/17 03:07:58;;;;;;;12.45;6.82;;;;;;;11.23;89.33;101747.84;5005842;28;20487;-45
2023/04/17 03:10:25;;;;;;;11.30;5.38;;;;;;;11.22;89.51;101749.81;5004915;28;20046;-46
2023/04/17 03:12:52;;;;;;;12.95;6.15;;;;;;;11.22;89.89;101752.59;5007168;28;20080;-48
2023/04/17 03:15:19;;;;;;;10.15;5.05;;;;;;;11.24;90.07;101750.28;5007481;28;20422;-45
2023/04/17 03:17:46;;;;;;;12.30;6.28;;;;;;;11.26;90.19;101742.47;5009312;28;20509;-45
2023/04/17 03:20:14;;;;;;;6.97;4.60;;;;;;;11.26;90.43;101750.78;5010155;28;20050;-45
2023/04/17 03:22:41;;;;;;;7.28;4.72;;;;;;;11.29;90.67;101760.41;5008138;28;20104;-46
2023/04/17 03:25:08;;;;;;;11.45;5.32;;;;;;;11.31;90.63;101753.38;5011577;28;20042;-45
2023/04/17 03:27:35;;;;;;;13.80;4.90;;;;;;;11.32;90.61;101755.03;5009773;28;20514;-48
2023/04/17 03:30:02;;;;;;;5.72;3.67;;;;;;;11.32;90.73;101755.03;5012307;28;20129;-46
2023/04/17 03:32:29;;;;;;;9.65;5.40;;;;;;;11.32;90.82;101754.22;5002915;28;20038;-45
2023/04/17 03:34:55;;;;;;;8.68;4.80;;;;;;;11.33;91.11;101753.88;5011970;28;20077;-46
2023/04/17 03:37:22;;;;;;;7.05;4.07;;;;;;;11.36;90.99;101756.00;5009781;28;20491;-45
2023/04/17 03:39:49;;;;;;;11.80;4.45;;;;;;;11.37;91.13;101752.09;5010299;28;20112;-48
2023/04/17 03:42:15;;;;;;;14.18;4.53;;;;;;;11.35;91.09;101759.94;5006708;28;20049;-45
2023/04/17 03:44:42;;;;;;;9.85;4.28;;;;;;;11.34;91.23;101755.50;5010443;28;20064;-50
2023/04/17 03:47:09;;;;;;;16.83;4.53;;;;;;;11.35;91.26;101759.09;5007213;28;20050;-45
2023/04/17 03:49:36;;;;;;;7.93;4.57;;;;;;;11.36;91.45;101760.72;4997847;28;20057;-46
2023/04/17 03:52:04;;;;;;;7.55;3.58;;;;;;;11.36;91.83;101756.00;5000516;28;20141;-46
2023/04/17 03:54:34;;;;;;;6.65;3.55;;;;;;;11.35;91.75;101750.78;5004155;28;20061;-50
2023/04/17 03:57:02;;;;;;;6.82;4.20;;;;;;;11.36;91.82;101755.19;4997688;28;20052;-46
2023/04/17 03:59:30;;;;;;;9.05;4.15;;;;;;;11.36;91.79;101755.19;5008899;28;20415;-45
2023/04/17 04:01:57;;;;;;;5.80;3.25;;;;;;;11.36;91.88;101760.72;5004349;28;20415;-52
2023/04/17 04:04:24;;;;;;;4.93;3.00;;;;;;;11.33;91.99;101756.66;4999785;28;20053;-45
2023/04/17 04:06:53;;;;;;;7.13;3.40;;;;;;;11.33;91.96;101753.88;5018531;28;20045;-45
2023/04/17 04:09:20;;;;;;;6.60;3.80;;;;;;;11.33;92.01;101759.41;5007108;28;20046;-50
2023/04/17 04:11:47;;;;;;;6.22;3.38;;;;;;;11.33;92.04;101755.84;5009482;28;20057;-46
2023/04/17 04:14:14;;;;;;;9.88;4.88;;;;;;;11.33;92.17;101750.31;5008537;28;20058;-46
2023/04/17 04:16:41;;;;;;;5.50;3.00;;;;;;;11.36;92.31;101752.41;5006847;28;20063;-50
2023/04/17 04:19:07;;;;;;;7.68;3.50;;;;;;;11.37;92.35;101756.81;5009492;28;20056;-47
2023/04/17 04:21:35;;;;;;;5.95;3.47;;;;;;;11.35;92.36;101754.38;5006591;28;20427;-45
2023/04/17 04:24:02;;;;;;;6.88;3.83;;;;;;;11.37;92.83;101763.19;5009606;28;20136;-45
2023/04/17 04:26:28;;;;;;;19.40;3.75;;;;;;;11.37;92.58;101768.72;5005843;28;20394;-45
2023/04/17 04:28:55;;;;;;;7.85;3.10;;;;;;;11.38;92.78;101762.06;5009399;28;20377;-49
2023/04/17 04:31:28;;;;;;;6.18;3.63;;;;;;;11.39;92.73;101765.63;5009717;28;20127;-46
2023/04/17 04:33:57;;;;;;;6.38;3.45;;;;;;;11.36;92.71;101753.22;5009862;28;20041;-46
2023/04/17 04:36:24;;;;;;;5.10;3.25;;;;;;;11.35;92.85;101765.47;5007493;28;20441;-47
2023/04/17 04:38:50;;;;;;;7.25;4.13;;;;;;;11.34;93.22;101757.47;5009926;28;20597;-46
2023/04/17 04:41:18;;;;;;;4.85;2.90;;;;;;;11.33;92.99;101761.41;5007556;28;20487;-46
2023/04/17 04:43:45;;;;;;;7.13;3.92;;;;;;;11.33;93.15;101764.97;5010018;28;20141;-45
2023/04/17 04:46:12;;;;;;;7.22;3.63;;;;;;;11.31;93.15;101758.09;5002522;28;20507;-45
2023/04/17 04:48:39;;;;;;;7.53;4.00;;;;;;;11.31;93.22;101758.94;5005106;28;20049;-45
2023/04/17 04:51:11;;;;;;;;;;;;;;;11.29;93.30;101768.72;4996990;28;20058;-45
2023/04/17 04:53:37;;;;;;;7.50;4.18;;;;;;;11.27;92.82;101769.06;5008001;28;19932;-45
2023/04/17 04:56:04;;;;;;;10.35;3.28;;;;;;;11.27;93.16;101769.06;5007058;28;20045;-50
2023/04/17 04:58:31;;;;;;;10.18;3.70;;;;;;;11.29;93.01;101772.31;5007828;28;20046;-45
2023/04/17 05:00:58;;;;;;;7.65;3.63;;;;;;;11.28;93.17;101770.66;5008728;28;20057;-45
2023/04/17 05:03:25;;;;;;;6.38;3.53;;;;;;;11.27;93.34;101780.16;5026699;28;20063;-45
2023/04/17 05:05:52;;;;;;;7.03;4.10;;;;;;;11.29;93.54;101765.94;5025391;28;20049;-46
2023/04/17 05:08:19;;;;;;;8.05;4.20;;;;;;;11.27;93.59;101784.88;5026598;28;20107;-45
2023/04/17 05:10:46;;;;;;;8.75;4.03;;;;;;;11.23;93.53;101773.59;5026145;28;20132;-49
2023/04/17 05:13:12;;;;;;;11.50;4.20;;;;;;;11.20;93.42;101779.78;5025707;28;20051;-50
2023/04/17 05:15:40;;;;;;;10.00;4.63;;;;;;;11.15;93.62;101782.72;5025444;28;20388;-45
2023/04/17 05:18:07;;;;;;;8.25;4.82;;;;;;;11.12;93.98;101782.56;5027980;28;20053;-46
2023/04/17 05:20:35;;;;;;;10.90;5.82;;;;;;;11.10;94.13;101785.66;5025173;28;20045;-45
2023/04/17 05:23:02;;;;;;;10.93;5.70;;;;;;;11.06;94.10;101790.22;5022823;28;20052;-45
2023/04/17 05:25:28;;;;;;;18.95;5.55;;;;;;;11.05;94.56;101785.81;5029847;28;20050;-45
2023/04/17 05:28:01;;;;;;;11.48;4.95;;;;;;;11.07;94.41;101791.84;5029918;28;20406;-45
2023/04/17 05:30:28;;;;;;;10.75;6.05;;;;;;;11.06;94.54;101795.75;5025606;28;20045;-49
2023/04/17 05:32:55;;;;;;;12.82;5.65;;;;;;;11.07;94.56;101796.59;5029637;28;20058;-46
2023/04/17 05:35:22;;;;;;;9.90;5.03;;;;;;;11.10;94.71;101791.19;5029263;28;20557;-46
2023/04/17 05:37:49;;;;;;;15.55;6.88;;;;;;;11.12;94.85;101793.66;5029519;28;20132;-45
2023/04/17 05:40:15;;;;;;;11.57;5.18;;;;;;;11.11;94.85;101792.84;5029509;28;20041;-46
2023/04/17 05:42:42;;;;;;;16.17;5.63;;;;;;;11.10;95.02;101790.38;5029063;28;20052;-45
2023/04/17 05:45:16;;;;;;;14.38;6.10;;;;;;;11.10;95.20;101802.28;5011148;28;20053;-47
2023/04/17 05:47:43;;;;;;;13.40;5.43;;;;;;;11.12;95.15;101799.19;5028876;28;20049;-45
2023/04/17 05:50:10;;;;;;;11.43;5.35;;;;;;;11.11;95.27;101792.00;5028982;28;20076;-46
2023/04/17 05:52:37;;;;;;;13.27;6.47;;;;;;;11.09;95.41;101810.94;5029945;28;20049;-46
2023/04/17 05:55:05;;;;;;;13.63;6.03;;;;;;;11.06;95.52;101804.06;5016543;28;20053;-49
2023/04/17 05:57:32;;;;;;;16.95;6.50;;;;;;;11.04;95.68;101800.78;5028997;28;20546;-49
2023/04/17 05:59:59;;;;;;;10.77;6.10;;;;;;;11.03;95.87;101807.50;5028016;28;20045;-46
2023/04/17 06:02:25;;;;;;;12.55;5.50;;;;;;;11.05;95.86;101805.19;5028881;28;20060;-45
2023/04/17 06:04:52;;;;;;;13.82;6.68;;;;;;;11.05;96.01;101804.38;5028647;28;20128;-46
2023/04/17 06:07:20;;;;;;;17.00;6.80;;;;;;;11.05;96.13;101802.44;5028723;28;20427;-45
2023/04/17 06:09:47;;;;;;;12.75;5.28;;;;;;;11.07;96.30;101805.69;5028651;28;20140;-46
2023/04/17 06:12:14;;;;;;;12.95;6.07;;;;;;;11.09;96.39;101806.22;5029084;28;20045;-48
2023/04/17 06:14:42;;;;;;;12.88;5.35;;;;;;;11.10;96.59;101816.13;5025137;28;20132;-45
2023/04/17 06:17:09;;;;;;;11.85;5.32;;;;;;;11.11;96.58;101809.47;5028595;28;20095;-46
2023/04/17 06:19:36;;;;;;;7.75;4.55;;;;;;;11.14;96.80;101808.81;5028605;28;20049;-46
2023/04/17 06:22:02;;;;;;;10.82;5.05;;;;;;;11.17;96.74;101813.72;5009030;28;20041;-45
2023/04/17 06:24:29;;;;;;;10.70;4.25;;;;;;;11.20;96.71;101812.25;5028107;28;20076;-47
2023/04/17 06:26:56;;;;;;;10.15;4.35;;;;;;;11.22;96.95;101816.34;5028258;28;20053;-46
2023/04/17 06:29:23;;;;;;;8.98;4.40;;;;;;;11.25;96.96;101821.22;5029119;28;20537;-47
2023/04/17 06:31:50;;;;;;;8.15;3.63;;;;;;;11.26;97.02;101822.84;5034197;28;20068;-47
2023/04/17 06:34:16;;;;;;;9.00;3.92;;;;;;;11.31;96.94;101828.25;5028326;28;20046;-45
2023/04/17 06:36:43;;;;;;;9.30;3.90;;;;;;;11.35;96.90;101832.00;5028245;28;20454;-45
2023/04/17 06:39:10;;;;;;;7.53;3.72;;;;;;;11.38;96.89;101834.16;5028585;28;20106;-45
2023/04/17 06:41:37;;;;;;;8.63;3.58;;;;;;;11.42;96.88;101843.44;5028351;28;20050;-48
2023/04/17 06:44:04;;;;;;;9.13;3.95;;;;;;;11.44;96.82;101843.91;5028553;28;20146;-45
2023/04/17 06:46:31;;;;;;;5.78;3.58;;;;;;;11.47;96.85;101843.28;5028080;28;20053;-47
2023/04/17 06:48:58;;;;;;;5.38;2.95;;;;;;;11.50;96.91;101858.44;5028635;28;20081;-45
2023/04/17 06:51:26;;;;;;;9.05;4.13;;;;;;;11.52;96.62;101854.22;5014712;28;20053;-45
2023/04/17 06:53:53;;;;;;;9.35;4.43;;;;;;;11.55;96.86;101848.00;5032105;28;20044;-47
2023/04/17 06:56:20;;;;;;;7.75;3.28;;;;;;;11.60;97.07;101853.41;5025834;28;20041;-45
2023/04/17 06:58:47;;;;;;;12.10;4.97;;;;;;;11.66;97.10;101853.22;5023090;28;20096;-46
2023/04/17 07:01:14;;;;;;;11.30;4.53;;;;;;;11.72;97.02;101852.78;5021970;28;20584;-47
2023/04/17 07:03:41;;;;;;;11.73;4.45;;;;;;;11.74;97.02;101844.13;5027355;28;20045;-46
2023/04/17 07:06:09;;;;;;;12.50;4.35;;;;;;;11.78;97.04;101850.69;5028633;28;20044;-46
2023/04/17 07:08:36;;;;;;;10.05;4.40;;;;;;;11.81;97.10;101855.56;5024057;28;20061;-51
2023/04/17 07:11:03;;;;;;;9.85;4.05;;;;;;;11.86;97.02;101858.97;5031488;28;20152;-51
2023/04/17 07:13:32;;;;;;;17.15;5.65;;;;;;;11.94;97.18;101860.94;5032189;28;20092;-48
2023/04/17 07:16:00;;;;;;;10.55;5.75;;;;;;;11.99;97.04;101862.75;5024774;28;20073;-48
2023/04/17 07:18:28;;;;;;;15.50;5.80;;;;;;;12.04;97.01;101862.56;5017232;28;20049;-46
2023/04/17 07:20:56;;;;;;;8.93;4.53;;;;;;;12.11;97.12;101872.03;5032085;28;20050;-48
2023/04/17 07:23:24;;;;;;;10.38;5.55;;;;;;;12.16;96.95;101869.09;5026032;28;20058;-50
2023/04/17 07:25:50;;;;;;;12.55;4.38;;;;;;;12.21;96.63;101877.25;5003218;28;20041;-47
2023/04/17 07:28:17;;;;;;;10.00;5.18;;;;;;;12.25;96.77;101880.19;5026594;28;20045;-46
2023/04/17 07:30:44;;;;;;;10.65;4.63;;;;;;;12.34;96.46;101880.19;5033396;28;20076;-51
2023/04/17 07:33:11;;;;;;;9.95;4.70;;;;;;;12.40;96.23;101874.13;5031114;28;20111;-46
2023/04/17 07:35:38;;;;;;;10.60;5.25;;;;;;;12.46;96.47;101883.91;5031278;28;20049;-50
2023/04/17 07:38:05;;;;;;;9.77;4.68;;;;;;;12.53;96.45;101883.38;5030507;28;20042;-46
2023/04/17 07:40:34;;;;;;;9.43;4.63;;;;;;;12.59;96.32;101888.44;5029244;28;20060;-49
2023/04/17 07:43:01;;;;;;;9.32;4.00;;;;;;;12.67;96.43;101889.56;5028411;28;20129;-47
2023/04/17 07:45:28;;;;;;;7.10;4.22;;;;;;;12.73;96.32;101889.03;5030617;28;20041;-47
2023/04/17 07:47:54;;;;;;;9.57;4.70;;;;;;;12.80;96.15;101881.03;5043477;28;20057;-48
2023/04/17 07:50:21;;;;;;;8.43;4.57;;;;;;;12.88;96.00;101893.25;5013788;28;20057;-46
2023/04/17 07:52:48;;;;;;;13.73;5.13;;;;;;;12.96;95.91;101892.41;5016266;28;20057;-49
2023/04/17 07:55:15;;;;;;;6.85;4.90;;;;;;;13.04;95.67;101896.28;5034874;28;20072;-46
2023/04/17 07:57:42;;;;;;;9.43;5.55;;;;;;;13.09;95.70;101896.97;5026221;28;20041;-50
2023/04/17 08:00:12;;;;;;;11.35;4.72;;;;;;;13.19;95.53;101890.19;5012590;28;20057;-48
2023/04/17 08:02:40;;;;;;;14.10;5.78;;;;;;;13.27;95.58;101900.47;5009675;28;20061;-50
2023/04/17 08:05:08;;;;;;;11.45;4.88;;;;;;;13.35;95.32;101897.63;4985481;28;20050;-50
2023/04/17 08:07:36;;;;;;;13.23;5.80;;;;;;;13.47;95.42;101885.78;5003546;28;20707;-47
2023/04/17 08:10:03;;;;;;;11.35;5.88;;;;;;;13.67;95.40;101896.13;5005720;28;20047;-47
2023/04/17 08:12:30;;;;;;;9.95;5.25;;;;;;;13.87;95.36;101892.53;5010387;28;20056;-49
2023/04/17 08:14:57;;;;;;;12.50;5.55;;;;;;;14.11;96.53;101889.03;5010181;28;20056;-52
2023/04/17 08:17:24;;;;;;;7.07;4.95;;;;;;;14.36;98.34;101887.22;5012927;28;20061;-47
2023/04/17 08:19:56;;;;;;;9.38;5.55;;;;;;;14.58;100.00;101900.75;5012854;28;20451;-53
2023/04/17 08:22:24;;;;;;;10.48;5.28;;;;;;;14.78;100.00;101896.25;5012547;28;20815;-44
2023/04/17 08:24:56;;;;;;;9.90;5.10;;;;;;;14.89;100.00;101905.81;4995607;28;20132;-48
2023/04/17 08:27:24;;;;;;;;;;;;;;;14.93;100.00;101901.19;4993807;28;20052;-46
2023/04/17 08:29:55;;;;;;;6.68;5.35;;;;;;;15.09;100.00;101900.13;5015651;28;19929;-48
2023/04/17 08:32:22;;;;;;;7.83;5.63;;;;;;;15.34;100.00;101902.94;5005902;28;20053;-45
2023/04/17 08:34:49;;;;;;;7.95;5.22;;;;;;;15.71;100.00;101901.75;5024249;28;20056;-46
2023/04/17 08:37:15;;;;;;;8.68;5.18;;;;;;;16.25;100.00;101905.00;5023632;28;20068;-45
2023/04/17 08:39:42;;;;;;;11.02;5.90;;;;;;;16.96;100.00;101913.38;5024292;28;20088;-46
2023/04/17 08:42:09;;;;;;;9.98;5.57;;;;;;;17.80;100.00;101919.44;5023668;28;20127;-45
2023/04/17 08:44:43;;;;;;;10.48;5.03;;;;;;;18.73;98.53;101926.63;5023479;28;20577;-46
2023/04/17 08:47:11;;;;;;;9.50;4.93;;;;;;;19.52;92.29;101938.88;5020805;28;20037;-47
2023/04/17 08:49:42;;;;;;;7.07;5.18;;;;;;;20.37;87.13;101940.09;5024298;28;20061;-46
2023/04/17 08:52:09;;;;;;;8.75;5.10;;;;;;;21.00;82.34;101940.00;5024520;28;20487;-47
2023/04/17 08:54:37;;;;;;;6.38;5.05;;;;;;;21.51;78.18;101942.88;5023331;28;20518;-48
2023/04/17 08:57:05;;;;;;;10.35;6.10;;;;;;;21.92;74.79;101952.91;5004776;28;20068;-50
2023/04/17 08:59:32;;;;;;;3.08;2.58;;;;;;;22.04;70.66;101944.09;5023324;28;20054;-47
2023/04/17 09:02:00;;;;;;;4.90;2.40;;;;;;;22.29;68.66;101950.66;5023944;28;20132;-51
2023/04/17 09:04:37;;;;;;;4.43;2.67;;;;;;;22.50;68.31;101949.94;5023723;28;20503;-45
2023/04/17 09:07:06;;;;;;;6.32;2.70;;;;;;;22.74;63.91;101951.28;5021905;28;20045;-45
2023/04/17 09:09:46;;;;;;;3.30;2.53;;;;;;;22.95;64.08;101949.28;5022612;28;20099;-49
2023/04/17 09:12:13;;;;;;;5.80;3.13;;;;;;;23.03;61.07;101947.28;5022601;28;20049;-46
2023/04/17 09:14:40;;;;;;;5.00;2.30;;;;;;;23.23;60.01;101959.81;5022670;28;20053;-46
2023/04/17 09:17:07;;;;;;;4.85;2.17;;;;;;;23.32;58.70;101951.75;5022103;28;20052;-47
2023/04/17 09:19:34;;;;;;;5.13;2.60;;;;;;;23.39;57.69;101957.44;5022488;28;20088;-49
2023/04/17 09:22:18;;;;;;;6.80;1.92;;;;;;;23.41;58.47;101955.00;5022629;28;20095;-48
2023/04/17 09:24:45;;;;;;;12.35;2.75;;;;;;;23.61;56.24;101953.41;5022989;28;20049;-47
2023/04/17 09:27:28;;;;;;;3.33;1.85;;;;;;;23.80;56.55;101948.53;5021751;28;20056;-48
2023/04/17 09:30:03;;;;;;;7.18;1.92;;;;;;;23.87;55.46;101957.81;5023122;28;20042;-46
2023/04/17 09:32:32;;;;;;;2.75;1.33;;;;;;;24.14;53.80;101958.97;5023296;28;20108;-46
2023/04/17 09:35:01;;;;;;;3.47;1.30;;;;;;;24.17;52.64;101957.34;5022814;28;20049;-45
2023/04/17 09:37:49;;;;;;;3.33;1.25;;;;;;;23.80;53.34;101965.50;5021999;28;20507;-46
2023/04/17 09:40:18;;;;;;;2.00;0.95;;;;;;;23.84;52.16;101960.63;5022764;28;20041;-47
2023/04/17 09:42:59;;;;;;;3.17;2.22;;;;;;;23.86;52.47;101964.66;5022501;28;20507;-45
2023/04/17 09:45:32;;;;;;;6.13;1.70;;;;;;;23.80;51.34;101971.94;5023135;28;20487;-45
2023/04/17 09:47:59;;;;;;;3.45;1.50;;;;;;;23.55;51.30;101971.16;5022212;28;20495;-46
2023/04/17 09:50:26;;;;;;;3.42;1.58;;;;;;;23.41;51.20;101976.81;5022165;28;20072;-45
2023/04/17 09:52:54;;;;;;;4.72;1.45;;;;;;;23.25;51.20;101980.00;5022479;28;20483;-48
2023/04/17 09:55:31;;;;;;;3.50;1.90;;;;;;;23.17;51.36;101988.84;5021002;28;20499;-49
2023/04/17 09:58:01;;;;;;;5.53;2.72;;;;;;;23.20;50.96;101991.69;5021394;28;20045;-49
2023/04/17 10:00:28;;;;;;;4.72;2.50;;;;;;;23.20;50.98;101993.72;5022261;28;20073;-45
2023/04/17 10:02:58;;;;;;;4.07;2.00;;;;;;;23.19;51.07;101992.94;5022339;28;20064;-45
2023/04/17 10:05:27;;;;;;;5.32;2.47;;;;;;;22.65;50.99;101988.34;5022189;28;20499;-47
2023/04/17 10:07:55;;;;;;;4.80;3.00;;;;;;;21.46;52.42;101996.78;5022036;28;20053;-47
2023/04/17 10:10:32;;;;;;;7.05;3.50;;;;;;;20.21;54.54;101988.06;5022054;28;20049;-45
2023/04/17 10:13:01;;;;;;;6.05;3.65;;;;;;;19.39;56.17;101990.81;5021498;28;20075;-45
2023/04/17 10:15:29;;;;;;;3.30;3.00;;;;;;;18.78;57.92;101988.03;5021364;28;20061;-47
2023/04/17 10:18:22;;;;;;;4.25;2.88;;;;;;;18.31;58.66;101984.63;5021892;28;20065;-48
2023/04/17 10:20:52;;;;;;;6.05;2.15;;;;;;;18.02;59.83;101984.00;5021114;28;20052;-45
2023/04/17 10:23:30;;;;;;;4.43;2.25;;;;;;;18.11;60.52;101983.78;5020971;28;20041;-44
2023/04/17 10:26:25;;;;;;;4.05;2.00;;;;;;;18.22;60.37;101987.63;5021961;28;20049;-45
2023/04/17 10:28:54;;;;;;;2.10;1.88;;;;;;;18.53;60.09;101981.91;5022023;28;20049;-45
2023/04/17 10:31:24;;;;;;;6.43;2.00;;;;;;;19.14;59.35;101972.69;5022193;28;20045;-49
2023/04/17 10:33:55;;;;;;;2.72;1.70;;;;;;;19.64;58.45;101974.38;5003835;28;20041;-45
2023/04/17 10:36:37;;;;;;;5.93;1.23;;;;;;;20.42;57.30;101991.22;5021093;28;20407;-45
2023/04/17 10:39:14;;;;;;;;;;;;;;;20.74;56.44;101985.97;5021448;28;20052;-47
2023/04/17 10:42:03;;;;;;;1.88;1.10;;;;;;;20.53;57.13;101982.91;5019960;28;21610;-45
2023/04/17 10:44:38;;;;;;;2.97;1.35;;;;;;;20.48;57.38;101992.50;5021547;28;20103;-47
2023/04/17 10:47:06;;;;;;;4.95;1.30;;;;;;;20.72;57.27;101985.56;5020852;28;20057;-46
2023/04/17 10:49:50;;;;;;;3.55;1.20;;;;;;;21.03;56.40;101987.91;5021688;28;20053;-45
2023/04/17 10:52:33;;;;;;;3.35;1.70;;;;;;;21.12;56.49;101999.72;5020287;28;20057;-45
2023/04/17 10:55:15;;;;;;;3.55;2.00;;;;;;;20.97;57.08;101997.09;5021810;28;20051;-45
2023/04/17 10:58:02;;;;;;;;;;;;;;;20.75;57.78;102007.31;5022299;28;20813;-47
2023/04/17 11:00:33;;;;;;;2.70;1.70;;;;;;;20.44;58.55;102002.06;5020414;28;19929;-45
2023/04/17 11:03:00;;;;;;;5.97;2.47;;;;;;;19.85;59.69;101994.38;5002873;28;20052;-48
2023/04/17 11:05:28;;;;;;;6.32;1.80;;;;;;;19.37;60.13;101993.16;5021098;28;20094;-48
2023/04/17 11:07:55;;;;;;;4.30;1.48;;;;;;;18.99;60.84;101988.44;5021125;28;20084;-47
2023/04/17 11:10:22;;;;;;;9.80;1.90;;;;;;;18.79;61.55;101989.69;5021982;28;20153;-44
2023/04/17 11:12:55;;;;;;;7.15;1.35;;;;;;;18.72;61.62;101981.91;5021575;28;20518;-45
2023/04/17 11:15:30;;;;;;;5.70;1.50;;;;;;;18.54;62.19;101975.16;5017703;28;20071;-51
2023/04/17 11:17:58;;;;;;;5.80;1.98;;;;;;;18.36;62.65;101979.53;5008481;28;20053;-51
2023/04/17 11:20:28;;;;;;;6.80;2.30;;;;;;;18.13;63.51;101967.44;5009668;28;20080;-47
2023/04/17 11:23:03;;;;;;;5.53;1.83;;;;;;;18.14;63.77;101969.84;5009154;28;20107;-49
2023/04/17 11:25:32;;;;;;;8.77;3.00;;;;;;;18.19;63.71;101963.13;5009474;28;20058;-47
2023/04/17 11:28:05;;;;;;;9.07;1.88;;;;;;;18.21;64.62;101969.22;5010000;28;20061;-45
2023/04/17 11:30:39;;;;;;;7.75;1.55;;;;;;;18.23;65.07;101972.44;4992067;28;20045;-47